sensor_id;sensor_type;location;lat;lon;timestamp;pressure;altitude;pressure_sealevel;temperature
28305;BMP280;15569;42.652;23.040;2023-03-19T00:00:55;93435.59;;;4.50
28305;BMP280;15569;42.652;23.040;2023-03-19T00:03:21;93413.84;;;4.31
28305;BMP280;15569;42.652;23.040;2023-03-19T00:05:51;93435.84;;;4.37
28305;BMP280;15569;42.652;23.040;2023-03-19T00:08:17;93425.06;;;4.37
28305;BMP280;15569;42.652;23.040;2023-03-19T00:10:42;93420.25;;;4.36
28305;BMP280;15569;42.652;23.040;2023-03-19T00:13:09;93426.50;;;4.38
28305;BMP280;15569;42.652;23.040;2023-03-19T00:15:34;93412.78;;;4.27
28305;BMP280;15569;42.652;23.040;2023-03-19T00:18:00;93431.03;;;4.36
28305;BMP280;15569;42.652;23.040;2023-03-19T00:20:26;93424.84;;;4.18
28305;BMP280;15569;42.652;23.040;2023-03-19T00:22:51;93420.81;;;4.34
28305;BMP280;15569;42.652;23.040;2023-03-19T00:25:16;93424.75;;;4.33
28305;BMP280;15569;42.652;23.040;2023-03-19T00:27:42;93418.19;;;4.27
28305;BMP280;15569;42.652;23.040;2023-03-19T00:30:09;93404.09;;;4.36
28305;BMP280;15569;42.652;23.040;2023-03-19T00:32:35;93413.38;;;4.42
28305;BMP280;15569;42.652;23.040;2023-03-19T00:35:01;93405.41;;;4.27
28305;BMP280;15569;42.652;23.040;2023-03-19T00:37:26;93401.09;;;4.32
28305;BMP280;15569;42.652;23.040;2023-03-19T00:39:52;93399.28;;;4.34
28305;BMP280;15569;42.652;23.040;2023-03-19T00:42:18;93386.06;;;4.21
28305;BMP280;15569;42.652;23.040;2023-03-19T00:44:43;93400.91;;;4.05
28305;BMP280;15569;42.652;23.040;2023-03-19T00:47:08;93396.78;;;4.04
28305;BMP280;15569;42.652;23.040;2023-03-19T00:49:34;93391.84;;;3.85
28305;BMP280;15569;42.652;23.040;2023-03-19T00:51:59;93382.16;;;3.90
28305;BMP280;15569;42.652;23.040;2023-03-19T00:54:25;93400.47;;;3.84
28305;BMP280;15569;42.652;23.040;2023-03-19T00:56:50;93385.06;;;3.84
28305;BMP280;15569;42.652;23.040;2023-03-19T00:59:15;93374.00;;;3.73
28305;BMP280;15569;42.652;23.040;2023-03-19T01:01:41;93384.19;;;3.82
28305;BMP280;15569;42.652;23.040;2023-03-19T01:04:06;93388.06;;;3.88
28305;BMP280;15569;42.652;23.040;2023-03-19T01:06:32;93392.09;;;3.72
28305;BMP280;15569;42.652;23.040;2023-03-19T01:08:57;93378.81;;;3.74
28305;BMP280;15569;42.652;23.040;2023-03-19T01:11:22;93367.94;;;3.65
28305;BMP280;15569;42.652;23.040;2023-03-19T01:13:48;93380.13;;;3.66
28305;BMP280;15569;42.652;23.040;2023-03-19T01:16:13;93380.06;;;3.73
28305;BMP280;15569;42.652;23.040;2023-03-19T01:18:38;93387.16;;;3.61
28305;BMP280;15569;42.652;23.040;2023-03-19T01:21:04;93387.97;;;3.71
28305;BMP280;15569;42.652;23.040;2023-03-19T01:23:30;93379.78;;;3.62
28305;BMP280;15569;42.652;23.040;2023-03-19T01:25:56;93380.63;;;3.72
28305;BMP280;15569;42.652;23.040;2023-03-19T01:28:21;93378.50;;;3.70
28305;BMP280;15569;42.652;23.040;2023-03-19T01:30:47;93385.94;;;3.87
28305;BMP280;15569;42.652;23.040;2023-03-19T01:33:13;93387.28;;;3.71
28305;BMP280;15569;42.652;23.040;2023-03-19T01:35:39;93388.38;;;3.68
28305;BMP280;15569;42.652;23.040;2023-03-19T01:38:04;93377.81;;;3.62
28305;BMP280;15569;42.652;23.040;2023-03-19T01:40:30;93379.22;;;3.71
28305;BMP280;15569;42.652;23.040;2023-03-19T01:45:43;93380.88;;;3.59
28305;BMP280;15569;42.652;23.040;2023-03-19T01:48:45;93375.94;;;3.80
28305;BMP280;15569;42.652;23.040;2023-03-19T01:51:14;93377.16;;;3.86
28305;BMP280;15569;42.652;23.040;2023-03-19T01:53:44;93374.16;;;3.75
28305;BMP280;15569;42.652;23.040;2023-03-19T01:56:42;93377.00;;;3.77
28305;BMP280;15569;42.652;23.040;2023-03-19T01:59:17;93374.00;;;3.73
28305;BMP280;15569;42.652;23.040;2023-03-19T02:01:53;93375.50;;;3.59
28305;BMP280;15569;42.652;23.040;2023-03-19T02:04:21;93377.38;;;3.73
28305;BMP280;15569;42.652;23.040;2023-03-19T02:06:47;93378.38;;;3.53
28305;BMP280;15569;42.652;23.040;2023-03-19T02:09:14;93370.22;;;3.36
28305;BMP280;15569;42.652;23.040;2023-03-19T02:11:40;93373.63;;;3.29
28305;BMP280;15569;42.652;23.040;2023-03-19T02:14:05;93365.13;;;3.55
28305;BMP280;15569;42.652;23.040;2023-03-19T02:16:32;93364.38;;;3.70
28305;BMP280;15569;42.652;23.040;2023-03-19T02:18:57;93374.97;;;3.52
28305;BMP280;15569;42.652;23.040;2023-03-19T02:21:23;93375.50;;;3.59
28305;BMP280;15569;42.652;23.040;2023-03-19T02:26:18;93376.13;;;3.34
28305;BMP280;15569;42.652;23.040;2023-03-19T02:28:46;93375.75;;;3.38
28305;BMP280;15569;42.652;23.040;2023-03-19T02:31:13;93382.88;;;3.58
28305;BMP280;15569;42.652;23.040;2023-03-19T02:33:38;93386.81;;;3.49
28305;BMP280;15569;42.652;23.040;2023-03-19T02:36:06;93374.22;;;3.20
28305;BMP280;15569;42.652;23.040;2023-03-19T03:25:27;93407.56;;;2.94
28305;BMP280;15569;42.652;23.040;2023-03-19T03:27:53;93412.38;;;3.18
28305;BMP280;15569;42.652;23.040;2023-03-19T03:30:18;93408.63;;;3.06
28305;BMP280;15569;42.652;23.040;2023-03-19T03:32:44;93396.47;;;2.90
28305;BMP280;15569;42.652;23.040;2023-03-19T03:35:10;93408.09;;;2.92
28305;BMP280;15569;42.652;23.040;2023-03-19T03:37:36;93406.47;;;3.05
28305;BMP280;15569;42.652;23.040;2023-03-19T03:40:02;93417.97;;;2.90
28305;BMP280;15569;42.652;23.040;2023-03-19T03:42:32;93411.31;;;3.06
28305;BMP280;15569;42.652;23.040;2023-03-19T03:44:57;93399.66;;;2.96
28305;BMP280;15569;42.652;23.040;2023-03-19T03:47:23;93397.84;;;3.14
28305;BMP280;15569;42.652;23.040;2023-03-19T03:49:48;93401.09;;;2.97
28305;BMP280;15569;42.652;23.040;2023-03-19T03:52:14;93405.22;;;3.13
28305;BMP280;15569;42.652;23.040;2023-03-19T03:54:39;93408.66;;;2.76
28305;BMP280;15569;42.652;23.040;2023-03-19T03:57:05;93406.53;;;2.74
28305;BMP280;15569;42.652;23.040;2023-03-19T03:59:32;93407.59;;;2.71
28305;BMP280;15569;42.652;23.040;2023-03-19T04:01:57;93409.91;;;2.82
28305;BMP280;15569;42.652;23.040;2023-03-19T04:04:23;93413.84;;;2.81
28305;BMP280;15569;42.652;23.040;2023-03-19T04:06:48;93404.00;;;2.69
28305;BMP280;15569;42.652;23.040;2023-03-19T04:09:14;93399.91;;;2.83
28305;BMP280;15569;42.652;23.040;2023-03-19T04:11:40;93400.94;;;2.95
28305;BMP280;15569;42.652;23.040;2023-03-19T04:14:06;93402.06;;;2.62
28305;BMP280;15569;42.652;23.040;2023-03-19T04:16:33;93400.78;;;2.78
28305;BMP280;15569;42.652;23.040;2023-03-19T04:18:58;93402.56;;;2.75
28305;BMP280;15569;42.652;23.040;2023-03-19T04:21:23;93404.72;;;2.69
28305;BMP280;15569;42.652;23.040;2023-03-19T04:23:50;93411.88;;;2.67
28305;BMP280;15569;42.652;23.040;2023-03-19T04:26:15;93417.63;;;2.86
28305;BMP280;15569;42.652;23.040;2023-03-19T04:28:41;93423.88;;;2.88
28305;BMP280;15569;42.652;23.040;2023-03-19T04:31:07;93408.78;;;2.93
28305;BMP280;15569;42.652;23.040;2023-03-19T04:33:33;93421.16;;;3.19
28305;BMP280;15569;42.652;23.040;2023-03-19T04:35:59;93421.34;;;2.98
28305;BMP280;15569;42.652;23.040;2023-03-19T04:38:26;93425.09;;;2.95
28305;BMP280;15569;42.652;23.040;2023-03-19T04:40:52;93416.19;;;2.85
28305;BMP280;15569;42.652;23.040;2023-03-19T04:43:17;93412.19;;;2.93
28305;BMP280;15569;42.652;23.040;2023-03-19T04:45:43;93427.78;;;2.95
28305;BMP280;15569;42.652;23.040;2023-03-19T04:48:09;93422.22;;;2.93
28305;BMP280;15569;42.652;23.040;2023-03-19T04:50:35;93425.50;;;2.92
28305;BMP280;15569;42.652;23.040;2023-03-19T04:53:00;93412.59;;;2.90
28305;BMP280;15569;42.652;23.040;2023-03-19T04:55:27;93418.34;;;2.86
28305;BMP280;15569;42.652;23.040;2023-03-19T04:57:52;93408.59;;;3.21
28305;BMP280;15569;42.652;23.040;2023-03-19T05:00:18;93413.81;;;3.04
28305;BMP280;15569;42.652;23.040;2023-03-19T05:02:44;93399.31;;;3.07
28305;BMP280;15569;42.652;23.040;2023-03-19T05:05:10;93411.44;;;3.23
28305;BMP280;15569;42.652;23.040;2023-03-19T05:07:37;93408.03;;;3.30
28305;BMP280;15569;42.652;23.040;2023-03-19T05:10:04;93400.69;;;3.31
28305;BMP280;15569;42.652;23.040;2023-03-19T05:12:29;93414.59;;;3.52
28305;BMP280;15569;42.652;23.040;2023-03-19T05:14:55;93394.03;;;3.39
28305;BMP280;15569;42.652;23.040;2023-03-19T05:17:20;93403.81;;;3.60
28305;BMP280;15569;42.652;23.040;2023-03-19T05:19:45;93414.84;;;3.71
28305;BMP280;15569;42.652;23.040;2023-03-19T05:22:11;93417.91;;;3.75
28305;BMP280;15569;42.652;23.040;2023-03-19T05:24:36;93421.19;;;3.66
28305;BMP280;15569;42.652;23.040;2023-03-19T05:27:02;93424.13;;;3.85
28305;BMP280;15569;42.652;23.040;2023-03-19T05:29:28;93418.59;;;3.83
28305;BMP280;15569;42.652;23.040;2023-03-19T05:31:53;93410.22;;;4.11
28305;BMP280;15569;42.652;23.040;2023-03-19T05:34:19;93425.44;;;4.09
28305;BMP280;15569;42.652;23.040;2023-03-19T05:36:44;93411.28;;;4.08
28305;BMP280;15569;42.652;23.040;2023-03-19T05:39:10;93423.09;;;4.13
28305;BMP280;15569;42.652;23.040;2023-03-19T05:41:36;93415.03;;;4.13
28305;BMP280;15569;42.652;23.040;2023-03-19T05:44:02;93428.88;;;4.34
28305;BMP280;15569;42.652;23.040;2023-03-19T05:46:27;93428.22;;;4.51
28305;BMP280;15569;42.652;23.040;2023-03-19T05:48:53;93420.09;;;4.58
28305;BMP280;15569;42.652;23.040;2023-03-19T05:51:18;93419.88;;;4.64
28305;BMP280;15569;42.652;23.040;2023-03-19T05:53:44;93413.31;;;4.74
28305;BMP280;15569;42.652;23.040;2023-03-19T05:56:10;93427.84;;;4.96
28305;BMP280;15569;42.652;23.040;2023-03-19T05:58:35;93434.91;;;5.09
28305;BMP280;15569;42.652;23.040;2023-03-19T06:01:01;93439.84;;;5.37
28305;BMP280;15569;42.652;23.040;2023-03-19T06:03:26;93436.69;;;5.31
28305;BMP280;15569;42.652;23.040;2023-03-19T06:05:52;93430.63;;;5.40
28305;BMP280;15569;42.652;23.040;2023-03-19T06:08:18;93433.00;;;5.53
28305;BMP280;15569;42.652;23.040;2023-03-19T06:10:44;93436.56;;;5.73
28305;BMP280;15569;42.652;23.040;2023-03-19T06:13:10;93433.38;;;5.84
28305;BMP280;15569;42.652;23.040;2023-03-19T06:15:35;93430.56;;;5.91
28305;BMP280;15569;42.652;23.040;2023-03-19T06:18:01;93438.41;;;5.97
28305;BMP280;15569;42.652;23.040;2023-03-19T06:20:27;93424.50;;;6.00
28305;BMP280;15569;42.652;23.040;2023-03-19T06:22:52;93415.94;;;6.21
28305;BMP280;15569;42.652;23.040;2023-03-19T06:25:17;93429.53;;;6.40
28305;BMP280;15569;42.652;23.040;2023-03-19T06:27:43;93431.94;;;6.46
28305;BMP280;15569;42.652;23.040;2023-03-19T06:30:09;93439.69;;;6.59
28305;BMP280;15569;42.652;23.040;2023-03-19T06:32:34;93440.50;;;6.52
28305;BMP280;15569;42.652;23.040;2023-03-19T06:35:00;93441.69;;;6.68
28305;BMP280;15569;42.652;23.040;2023-03-19T06:37:26;93441.84;;;6.70
28305;BMP280;15569;42.652;23.040;2023-03-19T06:39:51;93438.69;;;6.64
28305;BMP280;15569;42.652;23.040;2023-03-19T06:42:19;93447.00;;;7.04
28305;BMP280;15569;42.652;23.040;2023-03-19T06:44:45;93433.97;;;7.01
28305;BMP280;15569;42.652;23.040;2023-03-19T06:47:11;93446.59;;;7.17
28305;BMP280;15569;42.652;23.040;2023-03-19T06:49:36;93443.78;;;7.44
28305;BMP280;15569;42.652;23.040;2023-03-19T06:52:02;93436.78;;;7.31
28305;BMP280;15569;42.652;23.040;2023-03-19T06:54:27;93445.78;;;7.53
28305;BMP280;15569;42.652;23.040;2023-03-19T06:56:53;93436.94;;;7.43
28305;BMP280;15569;42.652;23.040;2023-03-19T06:59:18;93447.91;;;7.55
28305;BMP280;15569;42.652;23.040;2023-03-19T07:01:43;93445.19;;;7.64
28305;BMP280;15569;42.652;23.040;2023-03-19T07:04:10;93443.66;;;7.52
28305;BMP280;15569;42.652;23.040;2023-03-19T07:06:36;93446.00;;;7.86
28305;BMP280;15569;42.652;23.040;2023-03-19T07:09:01;93444.16;;;7.88
28305;BMP280;15569;42.652;23.040;2023-03-19T07:11:27;93433.63;;;7.73
28305;BMP280;15569;42.652;23.040;2023-03-19T07:13:52;93450.44;;;7.91
28305;BMP280;15569;42.652;23.040;2023-03-19T07:16:18;93448.31;;;7.80
28305;BMP280;15569;42.652;23.040;2023-03-19T07:18:43;93455.69;;;7.89
28305;BMP280;15569;42.652;23.040;2023-03-19T07:21:08;93447.50;;;8.18
28305;BMP280;15569;42.652;23.040;2023-03-19T07:23:34;93426.00;;;8.20
28305;BMP280;15569;42.652;23.040;2023-03-19T07:25:59;93438.00;;;8.47
28305;BMP280;15569;42.652;23.040;2023-03-19T07:28:24;93436.34;;;8.33
28305;BMP280;15569;42.652;23.040;2023-03-19T07:30:53;93444.38;;;8.52
28305;BMP280;15569;42.652;23.040;2023-03-19T07:33:20;93429.59;;;8.43
28305;BMP280;15569;42.652;23.040;2023-03-19T07:35:46;93439.72;;;8.73
28305;BMP280;15569;42.652;23.040;2023-03-19T07:38:11;93418.69;;;8.83
28305;BMP280;15569;42.652;23.040;2023-03-19T07:40:37;93449.75;;;9.13
28305;BMP280;15569;42.652;23.040;2023-03-19T07:43:02;93442.25;;;9.02
28305;BMP280;15569;42.652;23.040;2023-03-19T07:45:28;93448.66;;;8.86
28305;BMP280;15569;42.652;23.040;2023-03-19T07:47:53;93440.03;;;8.89
28305;BMP280;15569;42.652;23.040;2023-03-19T07:50:19;93451.41;;;8.76
28305;BMP280;15569;42.652;23.040;2023-03-19T07:52:46;93458.25;;;8.98
28305;BMP280;15569;42.652;23.040;2023-03-19T07:55:13;93451.41;;;8.76
28305;BMP280;15569;42.652;23.040;2023-03-19T07:57:39;93456.22;;;8.77
28305;BMP280;15569;42.652;23.040;2023-03-19T08:00:05;93450.22;;;9.10
28305;BMP280;15569;42.652;23.040;2023-03-19T08:02:30;93456.50;;;9.24
28305;BMP280;15569;42.652;23.040;2023-03-19T08:04:56;93458.31;;;9.31
28305;BMP280;15569;42.652;23.040;2023-03-19T08:07:22;93454.50;;;9.45
28305;BMP280;15569;42.652;23.040;2023-03-19T08:09:48;93451.97;;;9.38
28305;BMP280;15569;42.652;23.040;2023-03-19T08:12:13;93450.44;;;9.35
28305;BMP280;15569;42.652;23.040;2023-03-19T08:14:39;93457.88;;;9.13
28305;BMP280;15569;42.652;23.040;2023-03-19T08:17:05;93449.78;;;9.25
28305;BMP280;15569;42.652;23.040;2023-03-19T08:19:31;93452.22;;;8.78
28305;BMP280;15569;42.652;23.040;2023-03-19T08:21:57;93455.88;;;8.93
28305;BMP280;15569;42.652;23.040;2023-03-19T08:24:22;93443.03;;;8.93
28305;BMP280;15569;42.652;23.040;2023-03-19T08:26:48;93432.13;;;9.03
28305;BMP280;15569;42.652;23.040;2023-03-19T08:29:14;93439.13;;;9.38
28305;BMP280;15569;42.652;23.040;2023-03-19T08:31:39;93447.53;;;9.75
28305;BMP280;15569;42.652;23.040;2023-03-19T08:34:07;93445.53;;;9.87
28305;BMP280;15569;42.652;23.040;2023-03-19T08:36:34;93444.75;;;9.64
28305;BMP280;15569;42.652;23.040;2023-03-19T08:39:00;93442.81;;;9.87
28305;BMP280;15569;42.652;23.040;2023-03-19T08:43:50;93454.19;;;10.07
28305;BMP280;15569;42.652;23.040;2023-03-19T08:46:16;93450.38;;;9.77
28305;BMP280;15569;42.652;23.040;2023-03-19T08:48:41;93448.25;;;9.87
28305;BMP280;15569;42.652;23.040;2023-03-19T08:51:07;93438.84;;;10.00
28305;BMP280;15569;42.652;23.040;2023-03-19T08:53:34;93429.06;;;9.62
28305;BMP280;15569;42.652;23.040;2023-03-19T08:56:01;93438.97;;;10.02
28305;BMP280;15569;42.652;23.040;2023-03-19T08:58:27;93440.75;;;10.09
28305;BMP280;15569;42.652;23.040;2023-03-19T09:01:00;93421.28;;;10.36
28305;BMP280;15569;42.652;23.040;2023-03-19T09:03:27;93427.66;;;10.52
28305;BMP280;15569;42.652;23.040;2023-03-19T09:05:53;93421.28;;;10.59
28305;BMP280;15569;42.652;23.040;2023-03-19T09:08:21;93424.28;;;10.88
28305;BMP280;15569;42.652;23.040;2023-03-19T09:10:47;93427.91;;;11.04
28305;BMP280;15569;42.652;23.040;2023-03-19T09:13:12;93425.97;;;11.18
28305;BMP280;15569;42.652;23.040;2023-03-19T09:15:38;93424.28;;;11.25
28305;BMP280;15569;42.652;23.040;2023-03-19T09:18:03;93416.41;;;11.67
28305;BMP280;15569;42.652;23.040;2023-03-19T09:20:29;93421.63;;;11.63
28305;BMP280;15569;42.652;23.040;2023-03-19T09:22:54;93422.06;;;11.09
28305;BMP280;15569;42.652;23.040;2023-03-19T09:25:19;93416.97;;;11.52
28305;BMP280;15569;42.652;23.040;2023-03-19T09:27:45;93421.75;;;11.65
28305;BMP280;15569;42.652;23.040;2023-03-19T09:30:11;93416.19;;;11.63
28305;BMP280;15569;42.652;23.040;2023-03-19T09:32:36;93404.50;;;11.36
28305;BMP280;15569;42.652;23.040;2023-03-19T09:35:02;93417.47;;;11.88
28305;BMP280;15569;42.652;23.040;2023-03-19T09:37:27;93414.56;;;11.33
28305;BMP280;15569;42.652;23.040;2023-03-19T09:39:53;93409.16;;;11.72
28305;BMP280;15569;42.652;23.040;2023-03-19T09:45:26;93416.28;;;12.18
28305;BMP280;15569;42.652;23.040;2023-03-19T09:47:55;93410.34;;;12.08
28305;BMP280;15569;42.652;23.040;2023-03-19T09:50:24;93407.25;;;11.74
28305;BMP280;15569;42.652;23.040;2023-03-19T09:52:55;93399.94;;;12.18
28305;BMP280;15569;42.652;23.040;2023-03-19T09:57:47;93394.56;;;12.74
28305;BMP280;15569;42.652;23.040;2023-03-19T10:02:42;93401.59;;;13.35
28305;BMP280;15569;42.652;23.040;2023-03-19T10:05:30;93396.47;;;13.73
28305;BMP280;15569;42.652;23.040;2023-03-19T10:15:49;93384.63;;;12.94
28305;BMP280;15569;42.652;23.040;2023-03-19T10:18:27;93388.28;;;13.28
28305;BMP280;15569;42.652;23.040;2023-03-19T10:20:54;93383.16;;;13.65
28305;BMP280;15569;42.652;23.040;2023-03-19T10:25:53;93376.88;;;13.47
28305;BMP280;15569;42.652;23.040;2023-03-19T10:28:21;93364.19;;;13.54
28305;BMP280;15569;42.652;23.040;2023-03-19T10:31:11;93366.28;;;13.39
28305;BMP280;15569;42.652;23.040;2023-03-19T10:33:51;93353.28;;;13.85
28305;BMP280;15569;42.652;23.040;2023-03-19T10:36:18;93356.19;;;14.37
28305;BMP280;15569;42.652;23.040;2023-03-19T10:38:44;93358.78;;;14.67
28305;BMP280;15569;42.652;23.040;2023-03-19T10:44:01;93348.59;;;15.22
28305;BMP280;15569;42.652;23.040;2023-03-19T10:46:26;93340.94;;;15.36
28305;BMP280;15569;42.652;23.040;2023-03-19T10:48:52;93341.31;;;15.46
28305;BMP280;15569;42.652;23.040;2023-03-19T10:51:25;93320.66;;;15.63
28305;BMP280;15569;42.652;23.040;2023-03-19T10:53:52;93335.38;;;16.10
28305;BMP280;15569;42.652;23.040;2023-03-19T10:56:25;93335.78;;;15.83
28305;BMP280;15569;42.652;23.040;2023-03-19T10:59:02;93326.50;;;15.53
28305;BMP280;15569;42.652;23.040;2023-03-19T11:01:39;93317.53;;;15.70
28305;BMP280;15569;42.652;23.040;2023-03-19T11:04:19;93312.50;;;16.04
28305;BMP280;15569;42.652;23.040;2023-03-19T11:06:50;93299.41;;;16.22
28305;BMP280;15569;42.652;23.040;2023-03-19T11:09:29;93306.03;;;16.15
28305;BMP280;15569;42.652;23.040;2023-03-19T11:12:05;93305.44;;;15.97
28305;BMP280;15569;42.652;23.040;2023-03-19T11:14:35;93311.28;;;15.68
28305;BMP280;15569;42.652;23.040;2023-03-19T11:17:16;93303.03;;;15.68
28305;BMP280;15569;42.652;23.040;2023-03-19T11:19:48;93305.06;;;15.48
28305;BMP280;15569;42.652;23.040;2023-03-19T11:22:19;93299.09;;;15.53
28305;BMP280;15569;42.652;23.040;2023-03-19T11:24:51;93274.78;;;15.63
28305;BMP280;15569;42.652;23.040;2023-03-19T11:27:17;93266.53;;;16.44
28305;BMP280;15569;42.652;23.040;2023-03-19T11:29:44;93285.59;;;17.06
28305;BMP280;15569;42.652;23.040;2023-03-19T11:32:58;93284.09;;;17.51
28305;BMP280;15569;42.652;23.040;2023-03-19T11:35:17;93274.84;;;17.89
28305;BMP280;15569;42.652;23.040;2023-03-19T11:37:53;93263.41;;;18.27
28305;BMP280;15569;42.652;23.040;2023-03-19T11:46:36;93250.34;;;18.57
28305;BMP280;15569;42.652;23.040;2023-03-19T11:54:22;93244.19;;;18.29
28305;BMP280;15569;42.652;23.040;2023-03-19T11:57:03;93244.00;;;18.80
28305;BMP280;15569;42.652;23.040;2023-03-19T12:05:19;93232.19;;;20.22
28305;BMP280;15569;42.652;23.040;2023-03-19T12:22:14;93226.13;;;21.37
28305;BMP280;15569;42.652;23.040;2023-03-19T12:25:07;93217.56;;;21.77
28305;BMP280;15569;42.652;23.040;2023-03-19T12:27:42;93225.97;;;21.89
28305;BMP280;15569;42.652;23.040;2023-03-19T12:30:42;93227.75;;;21.58
28305;BMP280;15569;42.652;23.040;2023-03-19T12:34:06;93216.88;;;21.80
28305;BMP280;15569;42.652;23.040;2023-03-19T12:36:30;93213.66;;;22.10
28305;BMP280;15569;42.652;23.040;2023-03-19T12:38:58;93215.81;;;22.19
28305;BMP280;15569;42.652;23.040;2023-03-19T12:41:27;93207.09;;;22.61
28305;BMP280;15569;42.652;23.040;2023-03-19T12:44:01;93210.53;;;21.66
28305;BMP280;15569;42.652;23.040;2023-03-19T12:51:39;93205.13;;;22.85
28305;BMP280;15569;42.652;23.040;2023-03-19T12:54:13;93199.03;;;23.17
28305;BMP280;15569;42.652;23.040;2023-03-19T13:02:00;93190.00;;;24.61
28305;BMP280;15569;42.652;23.040;2023-03-19T13:04:34;93186.34;;;25.05
28305;BMP280;15569;42.652;23.040;2023-03-19T13:07:10;93188.00;;;24.07
28305;BMP280;15569;42.652;23.040;2023-03-19T13:09:42;93184.53;;;24.41
28305;BMP280;15569;42.652;23.040;2023-03-19T13:12:10;93189.25;;;24.77
28305;BMP280;15569;42.652;23.040;2023-03-19T13:14:46;93191.66;;;25.51
28305;BMP280;15569;42.652;23.040;2023-03-19T13:22:58;93178.34;;;26.42
28305;BMP280;15569;42.652;23.040;2023-03-19T13:25:35;93175.38;;;26.58
28305;BMP280;15569;42.652;23.040;2023-03-19T13:28:06;93172.94;;;26.87
28305;BMP280;15569;42.652;23.040;2023-03-19T13:30:34;93166.38;;;27.08
28305;BMP280;15569;42.652;23.040;2023-03-19T13:33:06;93166.38;;;27.57
28305;BMP280;15569;42.652;23.040;2023-03-19T13:35:39;93145.16;;;27.74
28305;BMP280;15569;42.652;23.040;2023-03-19T13:40:44;93155.38;;;27.47
28305;BMP280;15569;42.652;23.040;2023-03-19T13:43:38;93164.34;;;27.53
28305;BMP280;15569;42.652;23.040;2023-03-19T13:56:27;93138.50;;;28.32
28305;BMP280;15569;42.652;23.040;2023-03-19T13:59:23;93150.69;;;28.53
28305;BMP280;15569;42.652;23.040;2023-03-19T14:01:49;93138.59;;;28.95
28305;BMP280;15569;42.652;23.040;2023-03-19T14:04:36;93129.56;;;28.93
28305;BMP280;15569;42.652;23.040;2023-03-19T14:09:44;93130.31;;;29.22
28305;BMP280;15569;42.652;23.040;2023-03-19T14:15:13;93131.81;;;29.76
28305;BMP280;15569;42.652;23.040;2023-03-19T14:18:01;93132.53;;;29.17
28305;BMP280;15569;42.652;23.040;2023-03-19T14:20:32;93129.16;;;29.41
28305;BMP280;15569;42.652;23.040;2023-03-19T14:28:32;93134.63;;;28.52
28305;BMP280;15569;42.652;23.040;2023-03-19T14:30:58;93125.59;;;28.49
28305;BMP280;15569;42.652;23.040;2023-03-19T14:33:31;93123.03;;;28.39
28305;BMP280;15569;42.652;23.040;2023-03-19T14:36:02;93130.94;;;28.61
28305;BMP280;15569;42.652;23.040;2023-03-19T14:38:37;93115.19;;;28.78
28305;BMP280;15569;42.652;23.040;2023-03-19T14:41:05;93128.16;;;29.24
28305;BMP280;15569;42.652;23.040;2023-03-19T14:44:04;93131.41;;;29.35
28305;BMP280;15569;42.652;23.040;2023-03-19T14:46:48;93127.31;;;29.60
28305;BMP280;15569;42.652;23.040;2023-03-19T14:54:46;93122.69;;;30.53
28305;BMP280;15569;42.652;23.040;2023-03-19T14:57:19;93124.88;;;30.75
28305;BMP280;15569;42.652;23.040;2023-03-19T14:59:47;93127.84;;;30.69
28305;BMP280;15569;42.652;23.040;2023-03-19T15:02:29;93126.97;;;31.42
28305;BMP280;15569;42.652;23.040;2023-03-19T15:04:56;93124.69;;;31.69
28305;BMP280;15569;42.652;23.040;2023-03-19T15:07:28;93130.31;;;31.04
28305;BMP280;15569;42.652;23.040;2023-03-19T15:09:58;93122.44;;;31.74
28305;BMP280;15569;42.652;23.040;2023-03-19T15:15:16;93126.69;;;32.32
28305;BMP280;15569;42.652;23.040;2023-03-19T15:17:45;93133.66;;;32.73
28305;BMP280;15569;42.652;23.040;2023-03-19T15:20:20;93131.22;;;32.63
28305;BMP280;15569;42.652;23.040;2023-03-19T15:22:54;93123.41;;;32.26
28305;BMP280;15569;42.652;23.040;2023-03-19T15:25:20;93132.41;;;32.30
28305;BMP280;15569;42.652;23.040;2023-03-19T15:28:03;93136.69;;;32.48
28305;BMP280;15569;42.652;23.040;2023-03-19T15:30:28;93141.06;;;32.24
28305;BMP280;15569;42.652;23.040;2023-03-19T15:32:54;93141.81;;;32.23
28305;BMP280;15569;42.652;23.040;2023-03-19T15:35:23;93136.25;;;32.60
28305;BMP280;15569;42.652;23.040;2023-03-19T15:37:55;93136.56;;;32.13
28305;BMP280;15569;42.652;23.040;2023-03-19T15:40:24;93135.66;;;31.34
28305;BMP280;15569;42.652;23.040;2023-03-19T15:42:54;93140.25;;;32.07
28305;BMP280;15569;42.652;23.040;2023-03-19T15:45:24;93127.22;;;32.18
28305;BMP280;15569;42.652;23.040;2023-03-19T15:50:23;93143.63;;;31.71
28305;BMP280;15569;42.652;23.040;2023-03-19T15:52:57;93137.59;;;31.40
28305;BMP280;15569;42.652;23.040;2023-03-19T15:55:23;93137.00;;;30.92
28305;BMP280;15569;42.652;23.040;2023-03-19T15:57:52;93129.19;;;30.21
28305;BMP280;15569;42.652;23.040;2023-03-19T16:00:19;93143.81;;;29.44
28305;BMP280;15569;42.652;23.040;2023-03-19T16:02:48;93136.72;;;28.86
28305;BMP280;15569;42.652;23.040;2023-03-19T16:05:28;93139.78;;;28.74
28305;BMP280;15569;42.652;23.040;2023-03-19T16:07:58;93137.34;;;28.19
28305;BMP280;15569;42.652;23.040;2023-03-19T16:12:54;93142.75;;;25.74
28305;BMP280;15569;42.652;23.040;2023-03-19T16:15:43;93128.97;;;24.21
28305;BMP280;15569;42.652;23.040;2023-03-19T16:18:30;93151.25;;;23.55
28305;BMP280;15569;42.652;23.040;2023-03-19T16:21:08;93142.03;;;22.76
28305;BMP280;15569;42.652;23.040;2023-03-19T16:23:44;93153.44;;;22.10
28305;BMP280;15569;42.652;23.040;2023-03-19T16:26:42;93154.34;;;21.49
28305;BMP280;15569;42.652;23.040;2023-03-19T16:29:25;93159.66;;;20.67
28305;BMP280;15569;42.652;23.040;2023-03-19T16:31:52;93147.44;;;20.32
28305;BMP280;15569;42.652;23.040;2023-03-19T16:36:52;93159.03;;;19.38
28305;BMP280;15569;42.652;23.040;2023-03-19T16:39:31;93165.34;;;19.08
28305;BMP280;15569;42.652;23.040;2023-03-19T16:44:40;93163.44;;;18.18
28305;BMP280;15569;42.652;23.040;2023-03-19T16:47:10;93158.69;;;17.91
28305;BMP280;15569;42.652;23.040;2023-03-19T16:49:35;93160.91;;;17.71
28305;BMP280;15569;42.652;23.040;2023-03-19T16:52:00;93172.28;;;17.57
28305;BMP280;15569;42.652;23.040;2023-03-19T16:54:26;93176.47;;;17.09
28305;BMP280;15569;42.652;23.040;2023-03-19T16:56:51;93163.25;;;16.78
28305;BMP280;15569;42.652;23.040;2023-03-19T16:59:20;93165.13;;;16.71